メインページ
METAR-TAF:

METAR-TAF

空港 :

ニノイ・アキノ国際空港

マニラ, フィリピン

緯度: 14-31N, 経度: 121-00E, 海抜: 14m

現時点の気象観測

当レポートは50分前の04:00(UTC)に作成
南東の風 7kt、から南/南西の間で変化する
気温 36°C
湿度 47%
気圧 1009 hPa
視程10km以上
高度2500ftの雲はほとんどない

METAR: RPLL 250400Z 14007KT 090V210 9999 FEW025 36/23 Q1009 NOSIG RMK A2983

時間: 12:50 (04:50 UTC)

予報

当レポートは5時間50分前の23:00(UTC)に作成
予報は25日の 00時(UTC)から 26日の 06時(UTC)まで有効
東/南東の風 7kt
視程10km以上
高度2500ftの雲はほとんどない
25日の 04時(UTC)から 25日の 10時(UTC)まで一時的に
南/南東の風 11kt
高度2300ftの雲はほとんどない, 積乱雲.
高度9000ftの雲は散在している

TAF: RPLL 242300Z 2500/2606 12007KT 9999 FEW025 TX37/2506Z TN28/2521Z TEMPO 2504/2510 15011KT FEW023CB SCT090

4,000以上の空港の気象観測と天気予報(METAR報とTAF報)

利用可能な観測所は地図上に黄色い丸と赤い丸で示す。

丸の上にカーソルを重ねると観測所名を参照できる。

次にクリックすると気象観測と天気予報を参照できる。

マップの切り替え:黒色「×」印の緑ボタンをクリックして拡大、「-」印の緑ボタンをクリックして縮小、緑色の三角印をクリックして隣りの地図に切り替え


METAR-TAF: